createdAt,value
2022-12-18T00:00:01.613Z,80.591
2022-12-18T00:07:01.753Z,80.591
2022-12-18T00:14:01.966Z,80.187
2022-12-18T00:21:01.780Z,80.505
2022-12-18T00:28:01.528Z,80.238
2022-12-18T00:35:02.235Z,80.238
2022-12-18T00:42:01.716Z,80.098
2022-12-18T00:49:01.988Z,79.868
2022-12-18T00:56:02.287Z,79.868
2022-12-18T01:00:01.818Z,80.198
2022-12-18T01:07:01.311Z,80.144
2022-12-18T01:14:01.577Z,80.144
2022-12-18T01:21:01.991Z,79.737
2022-12-18T01:28:01.490Z,79.724
2022-12-18T01:35:01.581Z,79.724
2022-12-18T01:42:01.391Z,79.583
2022-12-18T01:49:02.074Z,79.195
2022-12-18T01:56:01.957Z,79.17
2022-12-18T02:00:02.512Z,79.17
2022-12-18T02:07:01.903Z,79.361
2022-12-18T02:14:02.105Z,79.361
2022-12-18T02:21:02.024Z,79.458
2022-12-18T02:28:02.041Z,79.52
2022-12-18T02:35:01.605Z,79.284
2022-12-18T02:42:01.815Z,79.284
2022-12-18T02:49:02.178Z,79.416
2022-12-18T02:56:01.867Z,79.465
2022-12-18T03:00:02.617Z,79.465
2022-12-18T03:07:02.180Z,79.693
2022-12-18T03:14:02.120Z,79.791
2022-12-18T03:21:01.353Z,79.791
2022-12-18T03:28:02.170Z,80.033
2022-12-18T03:35:02.291Z,80.132
2022-12-18T03:42:02.137Z,80.106
2022-12-18T03:49:01.436Z,80.106
2022-12-18T03:56:01.690Z,80.172
2022-12-18T04:00:02.196Z,80.172
2022-12-18T04:07:01.601Z,80.232
2022-12-18T04:14:05.887Z,80.167
2022-12-18T04:21:01.835Z,80.05
2022-12-18T04:28:01.647Z,80.05
2022-12-18T04:35:02.301Z,80.163
2022-12-18T04:42:02.247Z,80.017
2022-12-18T04:49:01.610Z,80.253
2022-12-18T04:56:02.281Z,80.253
2022-12-18T05:00:01.907Z,80.119
2022-12-18T05:07:01.921Z,80.119
2022-12-18T05:14:02.066Z,80.205
2022-12-18T05:21:01.621Z,80.096
2022-12-18T05:28:01.578Z,80.061
2022-12-18T05:35:01.699Z,80.061
2022-12-18T05:42:01.374Z,80.27
2022-12-18T05:49:02.238Z,80.223
2022-12-18T05:56:01.439Z,80.375
2022-12-18T06:00:01.966Z,80.375
2022-12-18T06:07:01.660Z,80.49
2022-12-18T06:14:02.054Z,80.49
2022-12-18T06:21:01.909Z,80.326
2022-12-18T06:28:01.973Z,80.427
2022-12-18T06:35:01.909Z,80.416
2022-12-18T06:42:01.385Z,80.416
2022-12-18T06:49:01.620Z,80.413
2022-12-18T06:56:06.420Z,80.415
2022-12-18T07:00:02.059Z,80.415
2022-12-18T07:07:01.876Z,80.229
2022-12-18T07:14:01.300Z,80.059
2022-12-18T07:21:02.250Z,80.059
2022-12-18T07:28:01.778Z,79.791
2022-12-18T07:35:01.971Z,79.778
2022-12-18T07:42:01.937Z,79.778
2022-12-18T07:49:01.986Z,79.584
2022-12-18T07:56:25.657Z,79.333
2022-12-18T08:00:01.868Z,79.333
2022-12-18T08:07:01.997Z,79.385
2022-12-18T08:14:01.743Z,79.312
2022-12-18T08:21:02.183Z,78.628
2022-12-18T08:28:02.015Z,78.628
2022-12-18T08:35:02.562Z,78.372
2022-12-18T08:42:06.845Z,78.492
2022-12-18T08:49:01.527Z,78.492
2022-12-18T08:56:01.671Z,78.587
2022-12-18T09:00:02.267Z,77.882
2022-12-18T09:07:01.930Z,77.882
2022-12-18T09:14:01.632Z,77.998
2022-12-18T09:21:01.571Z,78.206
2022-12-18T09:28:01.923Z,78.206
2022-12-18T09:35:01.886Z,77.79
2022-12-18T09:42:02.219Z,78.005
2022-12-18T09:49:02.293Z,77.78
2022-12-18T09:56:01.854Z,77.78
2022-12-18T10:00:02.521Z,76.779
2022-12-18T10:07:07.276Z,76.779
2022-12-18T10:14:01.717Z,76.615
2022-12-18T10:21:01.931Z,76.409
2022-12-18T10:28:01.365Z,76.177
2022-12-18T10:35:01.847Z,76.177
2022-12-18T10:42:01.864Z,76.474
2022-12-18T10:49:02.155Z,75.812
2022-12-18T10:56:01.539Z,74.675
2022-12-18T11:00:02.097Z,74.675
2022-12-18T11:07:01.423Z,74.205
2022-12-18T11:14:01.978Z,74.205
2022-12-18T11:21:02.137Z,74.136
2022-12-18T11:28:01.685Z,72.964
2022-12-18T11:35:02.387Z,72.732
2022-12-18T11:42:01.912Z,72.732
2022-12-18T11:49:02.036Z,72.416
2022-12-18T11:56:01.648Z,71.889
2022-12-18T12:00:02.272Z,71.889
2022-12-18T12:07:03.266Z,71.999
2022-12-18T12:14:02.167Z,70.941
2022-12-18T12:21:02.287Z,70.941
2022-12-18T12:28:02.273Z,70.904
2022-12-18T12:35:07.748Z,69.745
2022-12-18T12:42:01.448Z,70.338
2022-12-18T12:49:01.543Z,70.338
2022-12-18T12:56:01.294Z,70.129
2022-12-18T13:00:01.813Z,70.129
2022-12-18T13:07:01.962Z,69.789
2022-12-18T13:14:01.734Z,69.596
2022-12-18T13:21:03.553Z,69.354
2022-12-18T13:28:01.983Z,69.354
2022-12-18T13:35:02.424Z,69.222
2022-12-18T13:42:01.809Z,68.573
2022-12-18T13:49:01.409Z,68.573
2022-12-18T13:56:01.529Z,69.283
2022-12-18T14:00:02.445Z,68.666
2022-12-18T14:07:01.425Z,68.666
2022-12-18T14:14:02.236Z,68.555
2022-12-18T14:21:02.246Z,68.201
2022-12-18T14:28:01.456Z,68.308
2022-12-18T14:35:02.632Z,68.308
2022-12-18T14:42:01.334Z,67.844
2022-12-18T14:49:02.192Z,67.816
2022-12-18T14:56:01.665Z,67.816
2022-12-18T15:00:02.296Z,68.322
2022-12-18T15:07:01.639Z,68.632
2022-12-18T15:14:01.606Z,68.632
2022-12-18T15:21:01.536Z,68.137
2022-12-18T15:28:01.425Z,67.897
2022-12-18T15:35:02.256Z,67.897
2022-12-18T15:42:01.614Z,68.275
2022-12-18T15:49:03.010Z,68.709
2022-12-18T15:56:01.701Z,68.897
2022-12-18T16:00:02.460Z,68.897
2022-12-18T16:07:16.072Z,68.054
2022-12-18T16:14:01.687Z,68.054
2022-12-18T16:21:01.849Z,68.649
2022-12-18T16:28:02.156Z,68.544
2022-12-18T16:35:01.781Z,68.951
2022-12-18T16:42:02.657Z,68.951
2022-12-18T16:49:01.767Z,69.538
2022-12-18T16:56:02.044Z,70.041
2022-12-18T17:00:05.460Z,70.041
2022-12-18T17:07:01.811Z,70.437
2022-12-18T17:14:01.927Z,70.778
2022-12-18T17:21:01.980Z,70.778
2022-12-18T17:28:02.246Z,71.163
2022-12-18T17:35:06.962Z,71.43
2022-12-18T17:42:02.183Z,71.508
2022-12-18T17:49:01.491Z,71.508
2022-12-18T17:56:01.649Z,71.726
2022-12-18T18:00:02.305Z,71.726
2022-12-18T18:07:02.205Z,71.892
2022-12-18T18:14:01.606Z,71.804
2022-12-18T18:21:02.185Z,71.997
2022-12-18T18:28:01.792Z,71.997
2022-12-18T18:35:02.351Z,72.138
2022-12-18T18:42:01.978Z,72.189
2022-12-18T18:49:01.898Z,72.45
2022-12-18T18:56:37.422Z,72.45
2022-12-18T19:00:01.567Z,72.425
2022-12-18T19:07:01.707Z,72.425
2022-12-18T19:14:01.506Z,72.507
2022-12-18T19:21:01.367Z,72.442
2022-12-18T19:28:01.436Z,72.658
2022-12-18T19:35:02.102Z,72.658
2022-12-18T19:42:02.176Z,72.955
2022-12-18T19:49:02.590Z,72.805
2022-12-18T19:56:01.676Z,72.805
2022-12-18T20:00:02.318Z,72.864
2022-12-18T20:07:01.818Z,72.716
2022-12-18T20:14:02.240Z,72.716
2022-12-18T20:21:01.427Z,72.792
2022-12-18T20:28:01.849Z,72.955
2022-12-18T20:35:04.009Z,73.642
2022-12-18T20:42:02.282Z,73.642
2022-12-18T20:49:01.478Z,74.609
2022-12-18T20:56:01.962Z,74.479
2022-12-18T21:00:01.503Z,74.479
2022-12-18T21:07:02.885Z,74.367
2022-12-18T21:14:01.910Z,74.512
2022-12-18T21:21:02.087Z,74.512
2022-12-18T21:28:01.664Z,74.812
2022-12-18T21:35:01.653Z,75.684
2022-12-18T21:42:01.723Z,75.684
2022-12-18T21:49:01.865Z,76.087
2022-12-18T21:56:01.860Z,77.581
2022-12-18T22:00:02.544Z,77.581
2022-12-18T22:07:01.306Z,78.344
2022-12-18T22:14:01.418Z,79.007
2022-12-18T22:21:01.733Z,80.418
2022-12-18T22:28:01.511Z,80.418
2022-12-18T22:35:08.043Z,80.441
2022-12-18T22:42:01.721Z,81.416
2022-12-18T22:49:01.348Z,81.416
2022-12-18T22:56:02.293Z,82.21
2022-12-18T23:00:02.014Z,83.569
2022-12-18T23:07:02.291Z,83.569
2022-12-18T23:14:01.345Z,84.139
2022-12-18T23:21:01.756Z,84.627
2022-12-18T23:28:01.454Z,84.627
2022-12-18T23:35:02.592Z,85.442
2022-12-18T23:42:01.823Z,85.833
2022-12-18T23:49:01.882Z,85.514
2022-12-18T23:56:01.503Z,85.514
